Saint Louis, MO

3:12 AM CST on March 04, 2015 (GMT -0600)
Soulard | Change Station
CLOSE
Current Station
Personal Weather Station
Location: Saint Louis, MO
Elevation: 535 ft
Nearby Weather Stations

Elev 535 ft 38.61 °N, 90.21 °W | Updated 2 minutes ago

Overcast
Overcast
33.8 °F
Feels Like 31 °F
N
3.2
Wind Variable Wind from SW

Today
High -- | Low -- °F
--% Chance of Precip.
Yesterday
High -- | Low -- °F
Precip. -- in
6:28 AM 5:56 PM
Waxing Gibbous, 98% visible
Pressure 30.02 in
Visibility 8.0 miles
Clouds Overcast 3800 ft
Windchill 31 °F
Dew Point 31 °F
Humidity 89%
Rainfall 0.05 in
Snow Depth Not available.
UV 0 out of 12
Pollen 3.60 out of 12
Air Quality Not available.
Flu Activity Not available.
METAR KSTL 040851Z 32005KT 8SM OVC038 02/M02 A3000 RMK AO2 RAE0755SNB0755E50PLE26 SLP164 P0000 60001 T00171017 51017

More Conditions Fewer Conditions

Pressure 30.02 in
Visibility 8.0 miles
Clouds Overcast 3800 ft
Windchill 31 °F
Dew Point 31 °F
Humidity 89%
Rainfall 0.05 in
Snow Depth Not available.
UV 0 out of 12
Pollen 3.60 out of 12
Air Quality Not available.
Flu Activity Not available.
METAR KSTL 040851Z 32005KT 8SM OVC038 02/M02 A3000 RMK AO2 RAE0755SNB0755E50PLE26 SLP164 P0000 60001 T00171017 51017

More Conditions Fewer Conditions

10-Day Weather Forecast

Almanac

Astronomy

Mar. 04, 2015 Rise Set
Actual Time
Civil Twilight
Nautical Twilight
Astronomical Twilight
Moon
Length of Visible Light
Length of Day
Tomorrow will be .
, % of the Moon is Illuminated

Today's Extremes

State Highs State Lows

Community

WunderPhotos

Upload Photos

1,802,418 photos uploaded!

WunderBlogs® & News

Nearby

Air Quality

  Air Quality AQ Index Pollutant
Not available.

Snow Depth

Station Depth Elevation

Earthquake Activity

City Distance Mag. Time & Date
Minimum magnitude displayed is 2.5.

Coastal Water Temperatures

Place Temperature

Nearby Weather Stations